createdAt,value
2022-11-16T00:02:14.798Z,17.13
2022-11-16T00:04:42.183Z,17.05
2022-11-16T00:07:09.330Z,16.73
2022-11-16T00:09:36.680Z,16.13
2022-11-16T00:12:06.274Z,16.25
2022-11-16T00:14:35.190Z,15.88
2022-11-16T00:17:02.877Z,15.35
2022-11-16T00:19:30.026Z,16.20
2022-11-16T00:21:56.922Z,14.40
2022-11-16T00:24:24.069Z,14.45
2022-11-16T00:26:53.782Z,15.85
2022-11-16T00:29:24.084Z,13.65
2022-11-16T00:31:51.295Z,13.88
2022-11-16T00:34:18.591Z,13.13
2022-11-16T00:36:46.233Z,14.13
2022-11-16T00:39:14.559Z,14.50
2022-11-16T00:41:42.151Z,12.65
2022-11-16T00:44:09.270Z,13.38
2022-11-16T00:46:35.906Z,12.57
2022-11-16T00:49:03.072Z,15.25
2022-11-16T00:51:29.755Z,13.73
2022-11-16T00:53:56.406Z,14.32
2022-11-16T00:56:23.599Z,13.85
2022-11-16T00:58:50.519Z,12.75
2022-11-16T01:01:17.452Z,12.48
2022-11-16T01:03:44.210Z,13.73
2022-11-16T01:06:14.287Z,12.73
2022-11-16T01:08:42.634Z,12.93
2022-11-16T01:11:31.025Z,13.38
2022-11-16T01:13:57.617Z,15.20
2022-11-16T01:16:24.471Z,13.65
2022-11-16T01:18:53.425Z,13.57
2022-11-16T01:21:20.547Z,11.70
2022-11-16T01:23:47.340Z,11.80
2022-11-16T01:26:14.116Z,13.88
2022-11-16T01:28:40.764Z,11.68
2022-11-16T01:31:08.936Z,13.05
2022-11-16T01:33:36.126Z,14.55
2022-11-16T01:36:02.783Z,14.23
2022-11-16T01:38:30.120Z,12.88
2022-11-16T01:40:57.099Z,12.48
2022-11-16T01:43:27.154Z,12.70
2022-11-16T01:45:54.142Z,12.18
2022-11-16T01:48:27.864Z,12.48
2022-11-16T01:50:57.448Z,12.82
2022-11-16T01:53:25.016Z,13.02
2022-11-16T01:55:52.522Z,12.65
2022-11-16T01:58:23.207Z,13.80
2022-11-16T02:00:50.260Z,13.27
2022-11-16T02:03:20.704Z,13.93
2022-11-16T02:05:56.309Z,14.52
2022-11-16T02:08:53.702Z,13.38
2022-11-16T02:11:58.275Z,12.68
2022-11-16T02:14:34.565Z,13.90
2022-11-16T02:17:14.416Z,16.27
2022-11-16T02:19:44.032Z,14.77
2022-11-16T02:22:23.157Z,14.73
2022-11-16T02:25:16.648Z,13.35
2022-11-16T02:28:19.489Z,14.13
2022-11-16T02:30:50.613Z,15.02
2022-11-16T02:33:21.387Z,12.82
2022-11-16T02:38:22.831Z,15.05
2022-11-16T02:40:53.787Z,13.48
2022-11-16T02:43:30.159Z,15.35
2022-11-16T02:46:01.661Z,12.25
2022-11-16T02:48:35.756Z,13.07
2022-11-16T02:51:03.319Z,14.48
2022-11-16T02:53:37.116Z,14.18
2022-11-16T02:56:03.704Z,13.57
2022-11-16T02:58:30.701Z,12.90
2022-11-16T03:01:06.415Z,14.70
2022-11-16T03:03:43.688Z,15.75
2022-11-16T03:06:18.169Z,14.48
2022-11-16T03:09:07.295Z,13.82
2022-11-16T03:11:55.681Z,13.40
2022-11-16T03:14:27.275Z,13.40
2022-11-16T03:16:57.604Z,13.90
2022-11-16T03:19:33.588Z,13.13
2022-11-16T03:22:04.875Z,12.23
2022-11-16T03:24:31.956Z,12.60
2022-11-16T03:27:05.665Z,11.73
2022-11-16T03:30:04.262Z,14.35
2022-11-16T03:32:41.927Z,13.35
2022-11-16T03:35:17.290Z,15.30
2022-11-16T03:37:47.477Z,14.57
2022-11-16T03:40:14.476Z,14.70
2022-11-16T03:42:43.735Z,14.18
2022-11-16T03:45:12.438Z,13.77
2022-11-16T03:47:41.154Z,14.38
2022-11-16T03:50:08.717Z,13.75
2022-11-16T03:52:35.718Z,15.10
2022-11-16T03:55:02.311Z,14.80
2022-11-16T03:57:28.994Z,15.95
2022-11-16T03:59:55.652Z,14.50
2022-11-16T04:02:22.249Z,13.30
2022-11-16T04:05:08.216Z,14.93
2022-11-16T04:07:53.755Z,16.27
2022-11-16T04:10:38.718Z,15.27
2022-11-16T04:13:24.365Z,15.23
2022-11-16T04:16:09.901Z,14.50
2022-11-16T04:18:55.075Z,15.75
2022-11-16T04:21:49.327Z,15.13
2022-11-16T04:24:26.156Z,15.90
2022-11-16T04:27:19.681Z,15.93
2022-11-16T04:29:46.914Z,16.77
2022-11-16T04:32:32.296Z,15.90
2022-11-16T04:35:17.942Z,17.05
2022-11-16T04:37:50.354Z,15.55
2022-11-16T04:40:18.033Z,17.20
2022-11-16T04:42:51.152Z,17.52
2022-11-16T04:45:36.805Z,14.48
2022-11-16T04:48:04.043Z,16.55
2022-11-16T04:50:30.729Z,16.17
2022-11-16T04:52:57.392Z,17.20
2022-11-16T04:55:24.048Z,16.33
2022-11-16T04:57:50.861Z,16.52
2022-11-16T05:00:18.117Z,19.15
2022-11-16T05:02:44.951Z,19.17
2022-11-16T05:05:12.301Z,17.85
2022-11-16T05:07:39.016Z,17.00
2022-11-16T05:10:06.903Z,17.98
2022-11-16T05:12:34.230Z,17.92
2022-11-16T05:15:01.311Z,19.85
2022-11-16T05:17:28.523Z,18.60
2022-11-16T05:20:13.780Z,18.05
2022-11-16T05:22:40.379Z,17.40
2022-11-16T05:25:08.852Z,18.00
2022-11-16T05:27:36.299Z,16.50
2022-11-16T05:30:05.040Z,19.30
2022-11-16T05:32:31.913Z,18.98
2022-11-16T05:34:58.475Z,17.70
2022-11-16T05:37:26.842Z,15.35
2022-11-16T05:39:57.114Z,17.85
2022-11-16T05:42:23.783Z,15.75
2022-11-16T05:44:50.359Z,16.38
2022-11-16T05:47:17.206Z,16.60
2022-11-16T05:49:43.795Z,14.63
2022-11-16T05:52:10.355Z,17.15
2022-11-16T05:54:36.871Z,17.65
2022-11-16T05:57:03.425Z,16.55
2022-11-16T05:59:30.219Z,17.92
2022-11-16T06:01:57.925Z,17.15
2022-11-16T06:04:24.979Z,18.88
2022-11-16T06:06:52.280Z,19.27
2022-11-16T06:09:18.956Z,16.23
2022-11-16T06:11:45.783Z,16.85
2022-11-16T06:14:12.444Z,14.88
2022-11-16T06:16:39.044Z,17.20
2022-11-16T06:19:05.645Z,17.50
2022-11-16T06:21:33.074Z,17.80
2022-11-16T06:24:00.106Z,17.48
2022-11-16T06:26:26.698Z,15.98
2022-11-16T06:28:54.987Z,17.00
2022-11-16T06:31:21.946Z,14.80
2022-11-16T06:33:48.542Z,14.55
2022-11-16T06:36:15.113Z,14.18
2022-11-16T06:38:41.752Z,17.35
2022-11-16T06:41:08.360Z,16.75
2022-11-16T06:43:34.975Z,16.52
2022-11-16T06:46:01.628Z,16.42
2022-11-16T06:48:28.193Z,17.33
2022-11-16T06:50:54.812Z,16.20
2022-11-16T06:53:27.590Z,17.70
2022-11-16T06:55:55.774Z,16.65
2022-11-16T06:58:22.487Z,17.67
2022-11-16T07:00:49.208Z,17.15
2022-11-16T07:03:15.917Z,17.15
2022-11-16T07:05:42.543Z,15.75
2022-11-16T07:08:09.583Z,16.10
2022-11-16T07:10:38.004Z,14.93
2022-11-16T07:13:05.257Z,16.20
2022-11-16T07:15:32.658Z,15.05
2022-11-16T07:18:06.709Z,17.42
2022-11-16T07:20:34.016Z,16.58
2022-11-16T07:23:03.995Z,15.15
2022-11-16T07:25:32.438Z,15.52
2022-11-16T07:27:59.052Z,15.07
2022-11-16T07:30:26.607Z,14.20
2022-11-16T07:32:57.921Z,16.20
2022-11-16T07:35:24.630Z,15.57
2022-11-16T07:37:51.136Z,13.70
2022-11-16T07:40:17.666Z,13.75
2022-11-16T07:42:45.489Z,12.73
2022-11-16T07:45:12.270Z,13.00
2022-11-16T07:47:38.837Z,12.05
2022-11-16T07:50:06.552Z,14.40
2022-11-16T07:52:33.104Z,11.35
2022-11-16T07:55:01.418Z,11.68
2022-11-16T07:57:28.028Z,10.80
2022-11-16T07:59:54.544Z,10.27
2022-11-16T08:02:21.237Z,9.65
2022-11-16T08:04:47.768Z,9.90
2022-11-16T08:07:14.754Z,10.23
2022-11-16T08:09:41.435Z,6.90
2022-11-16T08:12:08.028Z,9.18
2022-11-16T08:14:34.560Z,8.35
2022-11-16T08:17:01.139Z,7.50
2022-11-16T08:19:27.625Z,9.13
2022-11-16T08:21:54.193Z,7.47
2022-11-16T08:24:20.943Z,8.73
2022-11-16T08:26:47.557Z,10.48
2022-11-16T08:29:15.270Z,8.93
2022-11-16T08:31:44.676Z,8.40
2022-11-16T08:34:11.560Z,8.20
2022-11-16T08:36:38.070Z,8.75
2022-11-16T08:39:04.755Z,8.40
2022-11-16T08:41:31.325Z,8.05
2022-11-16T08:43:59.412Z,7.57
2022-11-16T08:46:26.209Z,7.32
2022-11-16T08:48:56.432Z,8.00
2022-11-16T08:51:23.492Z,6.90
2022-11-16T08:53:55.765Z,6.45
2022-11-16T08:56:22.779Z,7.28
2022-11-16T08:58:53.817Z,7.32
2022-11-16T09:01:25.562Z,5.85
2022-11-16T09:03:52.763Z,6.07
2022-11-16T09:06:19.886Z,5.35
2022-11-16T09:08:47.077Z,5.95
2022-11-16T09:11:17.082Z,5.25
2022-11-16T09:13:45.642Z,5.57
2022-11-16T09:16:12.425Z,5.55
2022-11-16T09:18:39.020Z,4.15
2022-11-16T09:21:05.647Z,5.50
2022-11-16T09:23:32.173Z,5.32
2022-11-16T09:26:02.419Z,4.30
2022-11-16T09:28:29.373Z,4.90
2022-11-16T09:31:00.455Z,5.00
2022-11-16T09:33:29.152Z,4.55
2022-11-16T09:35:55.854Z,4.57
2022-11-16T09:38:34.846Z,5.50
2022-11-16T09:41:22.081Z,4.90
2022-11-16T09:44:12.596Z,4.43
2022-11-16T09:46:48.069Z,4.70
2022-11-16T09:49:26.062Z,4.05
2022-11-16T09:52:00.226Z,4.47
2022-11-16T09:54:31.699Z,4.57
2022-11-16T09:57:02.075Z,4.40
2022-11-16T09:59:37.106Z,3.58
2022-11-16T10:02:22.637Z,4.63
2022-11-16T10:04:58.672Z,4.30
2022-11-16T10:07:41.846Z,4.03
2022-11-16T10:10:24.388Z,3.35
2022-11-16T10:13:14.648Z,4.32
2022-11-16T10:15:56.191Z,2.97
2022-11-16T10:18:41.369Z,3.10
2022-11-16T10:21:19.207Z,3.33
2022-11-16T10:24:03.802Z,3.78
2022-11-16T10:26:45.285Z,3.97
2022-11-16T10:29:31.366Z,4.50
2022-11-16T10:32:07.723Z,3.40
2022-11-16T10:34:53.278Z,2.65
2022-11-16T10:37:21.397Z,3.33
2022-11-16T10:39:53.348Z,3.20
2022-11-16T10:42:42.238Z,3.78
2022-11-16T10:45:23.962Z,2.78
2022-11-16T10:48:17.791Z,2.75
2022-11-16T10:50:47.830Z,3.22
2022-11-16T10:53:25.242Z,3.38
2022-11-16T10:56:15.416Z,3.22
2022-11-16T10:59:11.443Z,2.45
2022-11-16T11:01:41.845Z,3.00
2022-11-16T11:04:23.944Z,3.50
2022-11-16T11:06:55.665Z,2.97
2022-11-16T11:09:32.616Z,2.35
2022-11-16T11:12:34.163Z,3.17
2022-11-16T11:15:13.488Z,2.47
2022-11-16T11:17:42.009Z,3.00
2022-11-16T11:20:28.988Z,3.20
2022-11-16T11:22:56.872Z,3.40
2022-11-16T11:25:30.151Z,3.28
2022-11-16T11:28:27.792Z,2.72
2022-11-16T11:31:13.726Z,2.63
2022-11-16T11:33:48.655Z,3.20
2022-11-16T11:36:20.503Z,2.70
2022-11-16T11:39:04.988Z,3.15
2022-11-16T11:41:41.098Z,3.10
2022-11-16T11:44:13.496Z,2.90
2022-11-16T11:47:35.057Z,2.72
2022-11-16T11:49:36.112Z,3.28
2022-11-16T11:52:14.244Z,2.70
2022-11-16T11:54:46.878Z,2.33
2022-11-16T11:57:20.656Z,2.97
2022-11-16T11:59:48.618Z,2.17
2022-11-16T12:02:25.315Z,2.65
2022-11-16T12:07:47.131Z,1.75
2022-11-16T12:10:19.519Z,1.60
2022-11-16T12:12:54.222Z,1.92
2022-11-16T12:15:44.530Z,1.45
2022-11-16T12:18:54.454Z,1.10
2022-11-16T12:21:43.993Z,1.70
2022-11-16T12:24:35.106Z,2.08
2022-11-16T12:27:13.339Z,2.67
2022-11-16T12:30:15.039Z,2.67
2022-11-16T12:32:56.271Z,2.40
2022-11-16T12:35:41.640Z,2.60
2022-11-16T12:38:30.055Z,2.25
2022-11-16T12:41:24.169Z,2.58
2022-11-16T12:44:02.065Z,2.20
2022-11-16T12:46:34.260Z,2.00
2022-11-16T12:49:37.411Z,2.28
2022-11-16T12:52:30.527Z,2.90
2022-11-16T12:55:28.484Z,1.98
2022-11-16T12:58:43.263Z,2.33
2022-11-16T13:01:14.693Z,3.47
2022-11-16T13:03:47.579Z,3.53
2022-11-16T13:06:20.239Z,3.45
2022-11-16T13:09:06.783Z,4.05
2022-11-16T13:11:39.234Z,3.63
2022-11-16T13:14:13.290Z,3.40
2022-11-16T13:16:39.830Z,3.53
2022-11-16T13:19:29.651Z,3.97
2022-11-16T13:22:05.732Z,4.57
2022-11-16T13:24:54.719Z,4.45
2022-11-16T13:27:46.709Z,3.40
2022-11-16T13:30:23.496Z,3.28
2022-11-16T13:33:27.230Z,3.53
2022-11-16T13:35:54.090Z,3.83
2022-11-16T13:38:49.746Z,4.68
2022-11-16T13:41:37.374Z,4.35
2022-11-16T13:44:12.364Z,4.50
2022-11-16T13:47:20.005Z,4.68
2022-11-16T13:49:57.794Z,5.00
2022-11-16T13:53:36.296Z,5.03
2022-11-16T13:55:34.922Z,4.65
2022-11-16T13:58:04.608Z,5.03
2022-11-16T14:00:34.565Z,4.00
2022-11-16T14:03:16.857Z,4.55
2022-11-16T14:05:47.195Z,4.97
2022-11-16T14:08:19.843Z,3.88
2022-11-16T14:10:49.085Z,4.18
2022-11-16T14:13:40.738Z,3.58
2022-11-16T14:16:22.787Z,4.35
2022-11-16T14:18:52.154Z,3.25
2022-11-16T14:21:36.957Z,5.35
2022-11-16T14:24:29.136Z,4.65
2022-11-16T14:27:10.329Z,3.72
2022-11-16T14:29:48.966Z,3.65
2022-11-16T14:32:26.916Z,3.33
2022-11-16T14:34:55.771Z,3.55
2022-11-16T14:37:22.265Z,3.72
2022-11-16T14:39:58.951Z,4.07
2022-11-16T14:42:38.044Z,4.10
2022-11-16T14:45:12.951Z,6.25
2022-11-16T14:47:39.812Z,2.85
2022-11-16T14:50:27.485Z,2.72
2022-11-16T14:53:00.257Z,3.95
2022-11-16T14:55:27.723Z,4.03
2022-11-16T14:58:23.165Z,4.13
2022-11-16T15:00:56.040Z,3.05
2022-11-16T15:03:47.071Z,3.53
2022-11-16T15:06:16.258Z,3.58
2022-11-16T15:08:51.632Z,3.50
2022-11-16T15:11:48.821Z,4.00
2022-11-16T15:14:21.459Z,3.53
2022-11-16T15:16:56.305Z,4.13
2022-11-16T15:19:24.439Z,3.15
2022-11-16T15:21:53.708Z,3.88
2022-11-16T15:24:32.079Z,4.07
2022-11-16T15:27:30.558Z,3.40
2022-11-16T15:29:57.178Z,3.60
2022-11-16T15:32:26.865Z,4.53
2022-11-16T15:34:54.513Z,3.45
2022-11-16T15:37:31.030Z,4.30
2022-11-16T15:40:00.067Z,5.10
2022-11-16T15:42:28.332Z,4.47
2022-11-16T15:44:55.974Z,3.33
2022-11-16T15:47:23.686Z,4.13
2022-11-16T15:49:53.090Z,4.43
2022-11-16T15:52:50.432Z,4.80
2022-11-16T15:55:31.941Z,4.90
2022-11-16T15:58:26.760Z,5.50
2022-11-16T16:03:26.494Z,4.28
2022-11-16T16:05:54.769Z,5.55
2022-11-16T16:08:37.613Z,4.97
2022-11-16T16:13:42.464Z,6.28
2022-11-16T16:16:29.015Z,5.43
2022-11-16T16:19:06.540Z,5.90
2022-11-16T16:21:47.333Z,6.85
2022-11-16T16:24:42.087Z,5.35
2022-11-16T16:29:57.333Z,6.22
2022-11-16T16:32:26.886Z,5.82
2022-11-16T16:34:58.782Z,5.38
2022-11-16T16:37:30.260Z,4.65
2022-11-16T16:39:57.584Z,5.15
2022-11-16T16:42:24.440Z,4.97
2022-11-16T16:44:51.014Z,4.55
2022-11-16T16:47:20.762Z,4.75
2022-11-16T16:49:49.447Z,4.95
2022-11-16T16:52:16.830Z,5.80
2022-11-16T16:54:43.711Z,4.28
2022-11-16T16:57:15.027Z,4.32
2022-11-16T16:59:42.729Z,5.22
2022-11-16T17:02:11.667Z,4.60
2022-11-16T17:04:38.241Z,5.35
2022-11-16T17:07:05.422Z,3.70
2022-11-16T17:09:32.036Z,4.15
2022-11-16T17:11:58.608Z,3.65
2022-11-16T17:14:25.289Z,4.22
2022-11-16T17:16:51.981Z,4.45
2022-11-16T17:19:19.098Z,3.85
2022-11-16T17:21:45.891Z,4.28
2022-11-16T17:24:12.835Z,3.92
2022-11-16T17:26:40.766Z,3.28
2022-11-16T17:29:07.639Z,3.67
2022-11-16T17:31:34.335Z,4.35
2022-11-16T17:34:01.300Z,3.83
2022-11-16T17:36:27.806Z,3.85
2022-11-16T17:38:54.290Z,4.25
2022-11-16T17:41:24.202Z,4.97
2022-11-16T17:43:53.030Z,4.60
2022-11-16T17:46:22.131Z,6.40
2022-11-16T17:48:50.770Z,4.95
2022-11-16T17:51:23.091Z,5.53
2022-11-16T17:53:49.970Z,5.20
2022-11-16T17:56:22.483Z,5.82
2022-11-16T17:58:52.323Z,6.53
2022-11-16T18:01:19.340Z,4.97
2022-11-16T18:03:45.925Z,5.20
2022-11-16T18:06:15.190Z,4.65
2022-11-16T18:08:43.879Z,5.10
2022-11-16T18:11:11.913Z,3.13
2022-11-16T18:13:38.866Z,4.07
2022-11-16T18:16:06.761Z,4.38
2022-11-16T18:18:34.302Z,4.47
2022-11-16T18:21:01.457Z,4.03
2022-11-16T18:23:28.851Z,4.13
2022-11-16T18:25:56.257Z,4.38
2022-11-16T18:28:23.313Z,4.07
2022-11-16T18:30:52.901Z,5.22
2022-11-16T18:33:19.680Z,3.17
2022-11-16T18:35:46.298Z,4.10
2022-11-16T18:38:13.216Z,3.90
2022-11-16T18:40:42.567Z,4.68
2022-11-16T18:43:15.552Z,4.75
2022-11-16T18:45:42.077Z,4.97
2022-11-16T18:48:10.374Z,4.18
2022-11-16T18:50:37.096Z,5.25
2022-11-16T18:53:03.608Z,4.40
2022-11-16T18:55:30.192Z,3.97
2022-11-16T18:57:57.720Z,4.72
2022-11-16T19:00:24.298Z,4.35
2022-11-16T19:02:51.561Z,4.53
2022-11-16T19:05:18.307Z,5.35
2022-11-16T19:07:44.826Z,4.07
2022-11-16T19:10:12.496Z,4.47
2022-11-16T19:12:39.342Z,3.95
2022-11-16T19:15:06.416Z,4.00
2022-11-16T19:20:32.021Z,5.53
2022-11-16T19:23:03.340Z,4.97
2022-11-16T19:25:29.837Z,4.60
2022-11-16T19:27:56.372Z,4.65
2022-11-16T19:30:23.135Z,5.25
2022-11-16T19:32:55.494Z,3.70
2022-11-16T19:35:24.798Z,5.07
2022-11-16T19:37:51.497Z,5.18
2022-11-16T19:40:23.703Z,6.10
2022-11-16T19:42:52.878Z,5.75
2022-11-16T19:45:19.450Z,5.75
2022-11-16T19:47:46.024Z,5.93
2022-11-16T19:50:12.586Z,5.70
2022-11-16T19:52:39.195Z,7.25
2022-11-16T19:55:05.946Z,6.38
2022-11-16T19:57:32.671Z,6.50
2022-11-16T19:59:59.364Z,7.10
2022-11-16T20:02:25.938Z,7.47
2022-11-16T20:04:53.470Z,5.90
2022-11-16T20:07:20.331Z,7.65
2022-11-16T20:09:52.074Z,6.22
2022-11-16T20:12:20.272Z,6.75
2022-11-16T20:14:46.813Z,7.88
2022-11-16T20:17:13.399Z,5.45
2022-11-16T20:19:40.104Z,7.80
2022-11-16T20:22:06.682Z,7.80
2022-11-16T20:24:33.194Z,7.93
2022-11-16T20:27:00.778Z,7.65
2022-11-16T20:29:27.598Z,7.50
2022-11-16T20:31:54.130Z,5.70
2022-11-16T20:34:22.182Z,7.95
2022-11-16T20:36:51.016Z,7.28
2022-11-16T20:39:20.341Z,7.25
2022-11-16T20:41:48.147Z,6.95
2022-11-16T20:44:26.679Z,6.72
2022-11-16T20:46:53.307Z,7.20
2022-11-16T20:49:20.109Z,8.55
2022-11-16T20:51:50.553Z,7.40
2022-11-16T20:54:17.123Z,7.88
2022-11-16T20:56:44.570Z,7.10
2022-11-16T20:59:11.230Z,7.22
2022-11-16T21:01:37.842Z,8.07
2022-11-16T21:04:05.936Z,6.05
2022-11-16T21:06:33.457Z,9.43
2022-11-16T21:09:00.515Z,8.32
2022-11-16T21:11:30.085Z,7.30
2022-11-16T21:14:15.234Z,7.65
2022-11-16T21:16:41.814Z,6.80
2022-11-16T21:19:08.427Z,7.72
2022-11-16T21:21:35.043Z,7.72
2022-11-16T21:24:01.800Z,8.35
2022-11-16T21:26:30.181Z,7.28
2022-11-16T21:28:58.055Z,7.45
2022-11-16T21:31:26.970Z,8.25
2022-11-16T21:33:54.416Z,7.35
2022-11-16T21:36:23.451Z,6.95
2022-11-16T21:38:50.515Z,7.85
2022-11-16T21:41:18.460Z,7.35
2022-11-16T21:43:45.087Z,7.22
2022-11-16T21:46:16.545Z,6.45
2022-11-16T21:48:43.090Z,6.18
2022-11-16T21:51:12.292Z,7.50
2022-11-16T21:53:39.664Z,6.72
2022-11-16T21:56:08.215Z,6.55
2022-11-16T21:58:34.709Z,6.95
2022-11-16T22:01:02.441Z,5.82
2022-11-16T22:03:30.733Z,5.68
2022-11-16T22:06:21.312Z,5.63
2022-11-16T22:08:48.405Z,6.20
2022-11-16T22:11:16.426Z,5.85
2022-11-16T22:13:44.037Z,6.38
2022-11-16T22:16:15.321Z,4.85
2022-11-16T22:18:42.041Z,6.75
2022-11-16T22:21:08.947Z,6.43
2022-11-16T22:23:36.822Z,6.10
2022-11-16T22:26:07.619Z,5.78
2022-11-16T22:28:34.815Z,5.80
2022-11-16T22:31:15.087Z,4.78
2022-11-16T22:33:42.196Z,5.97
2022-11-16T22:36:13.367Z,5.80
2022-11-16T22:38:39.938Z,6.30
2022-11-16T22:41:06.763Z,4.93
2022-11-16T22:43:35.940Z,5.75
2022-11-16T22:46:05.456Z,5.18
2022-11-16T22:48:36.745Z,6.85
2022-11-16T22:51:06.965Z,6.78
2022-11-16T22:53:34.621Z,7.00
2022-11-16T22:56:08.977Z,6.50
2022-11-16T22:58:37.179Z,6.07
2022-11-16T23:01:04.950Z,6.10
2022-11-16T23:03:31.721Z,7.13
2022-11-16T23:05:58.814Z,5.57
2022-11-16T23:08:26.292Z,5.80
2022-11-16T23:11:27.333Z,5.22
2022-11-16T23:14:13.268Z,5.38
2022-11-16T23:16:41.016Z,5.82
2022-11-16T23:19:28.137Z,5.60
2022-11-16T23:22:14.837Z,6.22
2022-11-16T23:25:00.534Z,4.57
2022-11-16T23:27:40.645Z,4.45
2022-11-16T23:30:12.479Z,4.75
2022-11-16T23:32:40.202Z,4.70
2022-11-16T23:35:07.511Z,4.47
2022-11-16T23:37:34.686Z,4.15
2022-11-16T23:40:01.189Z,5.28
2022-11-16T23:42:47.947Z,5.22
2022-11-16T23:45:14.719Z,4.70
2022-11-16T23:47:41.600Z,4.57
2022-11-16T23:50:08.490Z,5.30
2022-11-16T23:52:34.979Z,5.38
2022-11-16T23:55:01.479Z,6.05
2022-11-16T23:57:28.024Z,6.03
2022-11-16T23:59:54.527Z,5.30
